Time;durP1;ratioP1;P1;durP2;ratioP2;P2;SDS_P1;SDS_P2;PMS_P1;PMS_P2;Temp;Humidity;BMP_temperature;BMP_pressure;BME280_temperature;BME280_humidity;BME280_pressure;Samples;Min_cycle;Max_cycle;Signal;HPM_P1;HPM_P2
2021/11/15 00:00:13;;;;;;;58.28;33.95;;;;;;;6.59;100.00;101271.78;5090549;28;20032;-71
2021/11/15 00:02:40;;;;;;;61.53;35.15;;;;;;;6.69;100.00;101282.63;5071433;28;20036;-72
2021/11/15 00:05:06;;;;;;;60.85;35.58;;;;;;;6.59;100.00;101263.16;5090725;28;20032;-71
2021/11/15 00:07:32;;;;;;;64.22;34.70;;;;;;;6.67;100.00;101276.50;5090405;28;20028;-70
2021/11/15 00:09:57;;;;;;;64.80;35.60;;;;;;;6.66;100.00;101272.19;5071836;28;20374;-70
2021/11/15 00:12:23;;;;;;;64.05;34.20;;;;;;;6.74;100.00;101291.50;5090029;28;20050;-69
2021/11/15 00:14:48;;;;;;;59.63;33.13;;;;;;;6.66;100.00;101297.84;5089439;28;20036;-69
2021/11/15 00:17:14;;;;;;;62.58;36.38;;;;;;;6.51;100.00;101269.50;5089008;28;20115;-70
2021/11/15 00:19:40;;;;;;;56.05;34.58;;;;;;;6.72;100.00;101295.69;5085968;28;20103;-71
2021/11/15 00:22:05;;;;;;;64.15;35.60;;;;;;;6.66;100.00;101277.31;5088992;28;20031;-69
2021/11/15 00:24:31;;;;;;;62.60;37.17;;;;;;;6.75;100.00;101298.44;5088430;28;20035;-71
2021/11/15 00:26:56;;;;;;;60.40;34.35;;;;;;;6.76;100.00;101293.38;5086558;28;20107;-73
2021/11/15 00:29:22;;;;;;;61.03;35.67;;;;;;;6.68;100.00;101280.84;5049437;28;20094;-72
2021/11/15 00:31:47;;;;;;;60.33;34.72;;;;;;;6.60;100.00;101276.13;5088800;28;20035;-74
2021/11/15 00:34:13;;;;;;;57.40;33.95;;;;;;;6.73;100.00;101300.00;5089845;28;20030;-74
2021/11/15 00:36:39;;;;;;;60.05;35.53;;;;;;;6.68;100.00;101303.94;5090549;28;20065;-75
2021/11/15 00:39:05;;;;;;;68.05;38.17;;;;;;;6.55;100.00;101289.41;5089435;28;20035;-69
2021/11/15 00:41:31;;;;;;;64.97;36.67;;;;;;;6.42;100.00;101272.34;5090297;28;20024;-71
2021/11/15 00:43:56;;;;;;;60.97;34.47;;;;;;;6.50;100.00;101296.81;5089966;28;20541;-70
2021/11/15 00:46:22;;;;;;;66.07;37.10;;;;;;;6.44;100.00;101286.13;5089657;28;20032;-71
2021/11/15 00:48:48;;;;;;;66.10;38.20;;;;;;;6.57;100.00;101301.56;5090317;28;20036;-73
2021/11/15 00:51:14;;;;;;;69.30;38.55;;;;;;;6.55;100.00;101302.25;5089473;28;20072;-73
2021/11/15 00:53:40;;;;;;;69.03;38.70;;;;;;;6.20;100.00;101224.72;5089909;28;20028;-75
2021/11/15 00:56:05;;;;;;;65.38;38.10;;;;;;;6.58;100.00;101270.00;5091840;28;20031;-70
2021/11/15 00:58:31;;;;;;;69.03;38.30;;;;;;;6.66;100.00;101262.78;5093272;28;20081;-71
2021/11/15 01:00:57;;;;;;;66.32;39.08;;;;;;;6.88;100.00;101284.72;5074758;28;20032;-71
2021/11/15 01:03:24;;;;;;;66.28;38.35;;;;;;;6.94;100.00;101295.38;5094022;28;20093;-71
2021/11/15 01:05:49;;;;;;;66.60;36.63;;;;;;;6.94;100.00;101295.38;5074098;28;20046;-71
2021/11/15 01:08:17;;;;;;;60.35;36.70;;;;;;;6.89;100.00;101294.19;5091039;28;20032;-69
2021/11/15 01:10:44;;;;;;;63.40;38.13;;;;;;;6.76;100.00;101300.22;5093792;28;20035;-70
2021/11/15 01:13:10;;;;;;;69.43;39.17;;;;;;;6.10;100.00;101178.75;5093814;28;20031;-71
2021/11/15 01:15:39;;;;;;;63.47;38.17;;;;;;;6.84;100.00;101282.75;5074402;28;20036;-75
2021/11/15 01:18:05;;;;;;;68.13;38.45;;;;;;;6.89;100.00;101284.84;5093343;28;20024;-73
2021/11/15 01:20:32;;;;;;;63.53;37.72;;;;;;;6.94;100.00;101296.28;5091738;28;20031;-75
2021/11/15 01:22:59;;;;;;;70.85;38.15;;;;;;;6.91;100.00;101300.31;5093015;28;20107;-72
2021/11/15 01:25:27;;;;;;;66.78;39.83;;;;;;;6.94;100.00;101293.72;5093963;28;20474;-70
2021/11/15 01:27:54;;;;;;;61.63;37.88;;;;;;;7.03;100.00;101289.94;5091943;28;20111;-72
2021/11/15 01:30:22;;;;;;;62.67;38.30;;;;;;;7.08;100.00;101283.44;5093775;28;20077;-73
2021/11/15 01:32:48;;;;;;;65.43;38.85;;;;;;;6.66;100.00;101210.59;5093684;28;20032;-74
2021/11/15 01:35:14;;;;;;;68.80;39.28;;;;;;;7.02;100.00;101268.53;5093594;28;20092;-75
2021/11/15 01:37:40;;;;;;;69.47;37.65;;;;;;;7.12;100.00;101281.16;5093519;28;20463;-72
2021/11/15 01:40:09;;;;;;;63.17;36.63;;;;;;;7.14;100.00;101283.84;5093381;28;20099;-72
2021/11/15 01:42:55;;;;;;;67.15;37.97;;;;;;;7.19;100.00;101289.25;5073509;28;20440;-72
2021/11/15 01:45:25;;;;;;;66.97;39.05;;;;;;;7.17;100.00;101283.16;5069889;28;20060;-72
2021/11/15 01:47:52;;;;;;;;;;;;;;;7.19;100.00;101292.72;5067707;28;20043;-73
2021/11/15 01:50:17;;;;;;;65.07;38.22;;;;;;;7.12;100.00;101296.56;5070331;28;20424;-76
2021/11/15 01:52:44;;;;;;;74.13;39.92;;;;;;;7.12;100.00;101290.56;5070199;28;20119;-76
2021/11/15 01:55:10;;;;;;;69.47;38.70;;;;;;;7.14;100.00;101294.13;5070443;28;20567;-72
2021/11/15 01:57:36;;;;;;;65.55;36.88;;;;;;;7.13;100.00;101289.78;5069807;28;20048;-73
2021/11/15 02:00:16;;;;;;;62.97;37.65;;;;;;;7.17;100.00;101289.16;5070352;28;20084;-73
2021/11/15 02:02:42;;;;;;;66.65;38.22;;;;;;;7.12;100.00;101295.69;5069977;28;20110;-72
2021/11/15 02:05:07;;;;;;;63.42;38.78;;;;;;;6.92;100.00;101249.06;5070695;28;20048;-72
2021/11/15 02:07:33;;;;;;;70.45;39.35;;;;;;;6.72;100.00;101211.88;5066500;28;20090;-72
2021/11/15 02:09:59;;;;;;;70.82;38.05;;;;;;;7.22;100.00;101303.19;5067924;28;20032;-75
2021/11/15 02:12:26;;;;;;;68.82;38.70;;;;;;;6.68;100.00;101202.22;5069240;28;20505;-74
2021/11/15 02:14:52;;;;;;;70.30;39.05;;;;;;;7.19;100.00;101291.81;5068303;28;20036;-72
2021/11/15 02:17:17;;;;;;;65.18;39.00;;;;;;;6.23;100.00;101122.38;5085940;28;20123;-71
2021/11/15 02:19:44;;;;;;;65.65;37.97;;;;;;;7.26;100.00;101292.34;5087625;28;20178;-70
2021/11/15 02:22:09;;;;;;;68.45;39.10;;;;;;;7.11;100.00;101258.84;5093225;28;20043;-71
2021/11/15 02:24:35;;;;;;;67.40;38.53;;;;;;;7.18;100.00;101269.50;5075239;28;20032;-70
2021/11/15 02:27:01;;;;;;;75.65;41.55;;;;;;;7.16;100.00;101266.84;5093050;28;20111;-69
2021/11/15 02:29:27;;;;;;;70.05;39.97;;;;;;;7.25;100.00;101290.56;5092496;28;20032;-70
2021/11/15 02:31:52;;;;;;;72.82;40.97;;;;;;;7.21;100.00;101293.69;5092465;28;20031;-73
2021/11/15 02:34:18;;;;;;;67.82;40.08;;;;;;;6.88;100.00;101228.25;5092205;28;20039;-73
2021/11/15 02:36:43;;;;;;;66.05;39.65;;;;;;;7.29;100.00;101289.94;5092049;28;20106;-69
2021/11/15 02:39:09;;;;;;;62.42;38.20;;;;;;;7.29;100.00;101286.50;5092191;28;20028;-69
2021/11/15 02:41:35;;;;;;;69.72;39.42;;;;;;;7.32;100.00;101281.53;5091667;28;20122;-69
2021/11/15 02:44:02;;;;;;;62.88;38.72;;;;;;;7.20;100.00;101257.66;5091947;28;20030;-70
2021/11/15 02:46:28;;;;;;;66.68;38.55;;;;;;;7.32;100.00;101293.50;5092256;28;20032;-72
2021/11/15 02:48:55;;;;;;;70.60;39.75;;;;;;;7.29;100.00;101283.94;5092230;28;20076;-69
2021/11/15 02:51:21;;;;;;;68.38;40.30;;;;;;;7.33;100.00;101282.41;5091804;28;20042;-71
2021/11/15 02:53:47;;;;;;;68.43;39.65;;;;;;;7.24;100.00;101267.31;5091703;28;20062;-76
2021/11/15 02:56:12;;;;;;;69.70;39.72;;;;;;;7.41;100.00;101306.91;5092191;28;20454;-71
2021/11/15 02:58:38;;;;;;;62.20;37.67;;;;;;;7.30;100.00;101306.22;5072968;28;20102;-72
2021/11/15 03:01:17;;;;;;;64.82;36.80;;;;;;;7.24;100.00;101306.75;5073491;28;20061;-69
2021/11/15 03:03:43;;;;;;;63.60;36.88;;;;;;;7.26;100.00;101307.75;5092223;28;20064;-78
2021/11/15 03:06:09;;;;;;;68.20;38.58;;;;;;;6.76;100.00;101200.13;5092410;28;20028;-71
2021/11/15 03:08:35;;;;;;;64.25;37.72;;;;;;;7.25;100.00;101279.38;5092354;28;20383;-70
2021/11/15 03:11:04;;;;;;;65.10;38.28;;;;;;;7.27;100.00;101281.25;5091812;28;20035;-77
2021/11/15 03:13:32;;;;;;;;;;;;;;;7.35;100.00;101298.81;5092259;28;20026;-72
2021/11/15 03:15:59;;;;;;;59.58;36.67;;;;;;;6.92;100.00;101241.38;5092081;28;19916;-71
2021/11/15 03:18:31;;;;;;;60.83;36.47;;;;;;;7.23;100.00;101292.13;5091710;28;20068;-71
2021/11/15 03:20:59;;;;;;;64.13;38.60;;;;;;;7.23;100.00;101289.56;5074923;28;20107;-71
2021/11/15 03:23:28;;;;;;;69.13;39.20;;;;;;;7.31;100.00;101299.44;5092180;28;20081;-71
2021/11/15 03:25:55;;;;;;;65.68;36.58;;;;;;;7.28;100.00;101312.97;5092052;28;20024;-76
2021/11/15 03:28:23;;;;;;;66.07;37.83;;;;;;;7.21;100.00;101291.13;5092180;28;20058;-71
2021/11/15 03:30:54;;;;;;;63.38;37.92;;;;;;;7.13;100.00;101287.19;5086111;28;20043;-76
2021/11/15 03:33:21;;;;;;;60.90;35.83;;;;;;;7.18;100.00;101292.59;5073339;28;20021;-71
2021/11/15 03:35:47;;;;;;;59.88;36.65;;;;;;;7.20;100.00;101293.59;5077520;28;20021;-71
2021/11/15 03:38:13;;;;;;;65.40;38.42;;;;;;;7.04;100.00;101281.47;5081403;28;20104;-70
2021/11/15 03:40:39;;;;;;;66.80;38.95;;;;;;;6.88;100.00;101257.38;5091765;28;20103;-71
2021/11/15 03:43:05;;;;;;;65.15;38.30;;;;;;;7.09;100.00;101301.53;5092141;28;20051;-71
2021/11/15 03:45:32;;;;;;;70.00;38.95;;;;;;;6.91;100.00;101265.25;5091887;28;20035;-71
2021/11/15 03:47:58;;;;;;;65.03;38.15;;;;;;;7.07;100.00;101310.78;5091953;28;20032;-70
2021/11/15 03:50:25;;;;;;;67.32;39.95;;;;;;;7.09;100.00;101296.38;5091334;28;20474;-70
2021/11/15 03:52:53;;;;;;;63.35;38.50;;;;;;;6.94;100.00;101256.88;5091729;28;20028;-70
2021/11/15 03:55:20;;;;;;;69.05;38.65;;;;;;;6.89;100.00;101261.72;5091389;28;20024;-70
2021/11/15 03:57:46;;;;;;;68.88;41.05;;;;;;;7.17;100.00;101302.00;5091160;28;20085;-71
2021/11/15 04:00:16;;;;;;;64.57;39.38;;;;;;;7.12;100.00;101290.56;5091589;28;20043;-74
2021/11/15 04:02:43;;;;;;;66.72;39.75;;;;;;;6.63;100.00;101209.59;5091607;28;20401;-71
2021/11/15 04:05:11;;;;;;;69.20;38.58;;;;;;;7.00;100.00;101270.09;5091659;28;20047;-71
2021/11/15 04:07:49;;;;;;;64.85;38.03;;;;;;;7.15;100.00;101295.88;5091348;28;20085;-71
2021/11/15 04:10:23;;;;;;;67.72;39.45;;;;;;;7.22;100.00;101287.78;5091169;28;20028;-73
2021/11/15 04:12:49;;;;;;;69.65;39.60;;;;;;;6.96;100.00;101239.91;5091587;28;20111;-72
2021/11/15 04:15:15;;;;;;;68.22;37.78;;;;;;;7.21;100.00;101291.13;5090802;28;20024;-70
2021/11/15 04:17:43;;;;;;;69.00;38.90;;;;;;;7.17;100.00;101293.44;5091350;28;20389;-70
2021/11/15 04:20:12;;;;;;;63.05;36.72;;;;;;;6.79;100.00;101224.31;5091132;28;20020;-76
2021/11/15 04:22:38;;;;;;;60.03;36.13;;;;;;;7.20;100.00;101304.78;5039319;28;20448;-72
2021/11/15 04:25:07;;;;;;;65.20;37.50;;;;;;;7.22;100.00;101298.03;5091092;28;20036;-72
2021/11/15 04:27:32;;;;;;;60.53;36.65;;;;;;;7.06;100.00;101279.88;5091236;28;20118;-71
2021/11/15 04:29:58;;;;;;;71.10;38.75;;;;;;;7.09;100.00;101298.94;5091103;28;20111;-74
2021/11/15 04:32:23;;;;;;;64.35;37.92;;;;;;;7.12;100.00;101316.22;5091398;28;20550;-70
2021/11/15 04:34:49;;;;;;;64.32;38.85;;;;;;;7.08;100.00;101309.13;5091537;28;20024;-71
2021/11/15 04:37:16;;;;;;;61.08;38.17;;;;;;;6.52;100.00;101213.16;5090248;28;20436;-71
2021/11/15 04:39:41;;;;;;;68.30;38.80;;;;;;;6.97;100.00;101290.47;5091115;28;20078;-70
2021/11/15 04:42:06;;;;;;;66.88;39.83;;;;;;;7.10;100.00;101321.28;5038627;28;20080;-70
2021/11/15 04:44:32;;;;;;;73.50;41.53;;;;;;;7.18;100.00;101321.75;5090904;28;20409;-70
2021/11/15 04:46:57;;;;;;;69.63;38.97;;;;;;;7.13;100.00;101318.00;5091145;28;20024;-71
2021/11/15 04:49:23;;;;;;;68.85;40.28;;;;;;;7.18;100.00;101318.28;5090647;28;20028;-70
2021/11/15 04:51:49;;;;;;;70.30;39.65;;;;;;;7.16;100.00;101317.31;5090816;28;20030;-69
2021/11/15 04:54:15;;;;;;;64.13;37.00;;;;;;;7.10;100.00;101312.66;5090523;28;20028;-71
2021/11/15 04:56:42;;;;;;;69.65;37.60;;;;;;;6.96;100.00;101310.09;5090862;28;20024;-70
2021/11/15 04:59:08;;;;;;;74.38;39.05;;;;;;;6.87;100.00;101304.38;5090961;28;20056;-71
2021/11/15 05:01:34;;;;;;;70.15;39.40;;;;;;;6.95;100.00;101327.97;5090885;28;20064;-74
2021/11/15 05:04:00;;;;;;;69.90;39.90;;;;;;;6.37;100.00;101236.13;5091037;28;20048;-74
2021/11/15 05:06:25;;;;;;;71.30;40.25;;;;;;;6.91;100.00;101339.72;5090610;28;20031;-72
2021/11/15 05:08:51;;;;;;;68.88;40.08;;;;;;;6.78;100.00;101319.19;5072859;28;20493;-73
2021/11/15 05:11:16;;;;;;;76.30;43.58;;;;;;;6.92;100.00;101344.06;5070771;28;20043;-73
2021/11/15 05:13:42;;;;;;;87.03;44.20;;;;;;;6.87;100.00;101332.59;5083423;28;20043;-73
2021/11/15 05:16:07;;;;;;;75.18;46.05;;;;;;;6.97;100.00;101349.50;5090581;28;20481;-76
2021/11/15 05:18:33;;;;;;;91.50;51.92;;;;;;;6.84;100.00;101328.94;5090415;28;20710;-72
2021/11/15 05:20:59;;;;;;;91.35;52.70;;;;;;;6.95;100.00;101346.84;5090796;28;20051;-72
2021/11/15 05:23:25;;;;;;;84.45;47.60;;;;;;;6.98;100.00;101359.00;5090506;28;20084;-73
2021/11/15 05:25:51;;;;;;;82.82;47.42;;;;;;;7.00;100.00;101361.66;5089824;28;20060;-72
2021/11/15 05:28:17;;;;;;;78.05;44.95;;;;;;;7.00;100.00;101362.53;5090719;28;20052;-73
2021/11/15 05:30:43;;;;;;;74.68;43.15;;;;;;;6.92;100.00;101369.72;5090374;28;20028;-73
2021/11/15 05:33:09;;;;;;;75.40;42.42;;;;;;;6.73;100.00;101374.41;5090883;28;20501;-73
2021/11/15 05:35:34;;;;;;;77.00;41.03;;;;;;;6.68;100.00;101350.13;5090026;28;20085;-71
2021/11/15 05:38:00;;;;;;;79.43;44.25;;;;;;;6.87;100.00;101372.78;5090275;28;20028;-71
2021/11/15 05:40:26;;;;;;;101.82;53.83;;;;;;;6.59;100.00;101358.09;5090614;28;20024;-72
2021/11/15 05:42:53;;;;;;;114.80;63.78;;;;;;;6.74;100.00;101392.50;5093594;28;20537;-71
2021/11/15 05:45:20;;;;;;;108.13;61.58;;;;;;;6.75;100.00;101394.28;5093848;28;20039;-71
2021/11/15 05:47:46;;;;;;;98.88;55.20;;;;;;;6.79;100.00;101401.41;5094105;28;20040;-72
2021/11/15 05:50:12;;;;;;;97.63;54.20;;;;;;;6.83;100.00;101399.94;5093299;28;20036;-72
2021/11/15 05:52:40;;;;;;;84.72;47.25;;;;;;;6.87;100.00;101401.03;5058151;28;20040;-71
2021/11/15 05:55:09;;;;;;;80.38;44.42;;;;;;;6.41;100.00;101315.03;5093657;28;20046;-71
2021/11/15 05:57:34;;;;;;;82.35;45.13;;;;;;;6.88;100.00;101402.78;5093651;28;20039;-71
2021/11/15 06:00:00;;;;;;;75.50;42.13;;;;;;;6.91;100.00;101414.16;5075877;28;20016;-72
2021/11/15 06:02:25;;;;;;;71.60;40.67;;;;;;;6.79;100.00;101383.44;5093941;28;20036;-72
2021/11/15 06:04:51;;;;;;;72.38;40.50;;;;;;;6.87;100.00;101417.31;5093776;28;20048;-73
2021/11/15 06:07:16;;;;;;;75.22;41.95;;;;;;;6.66;100.00;101403.91;5074806;28;20044;-72
2021/11/15 06:09:42;;;;;;;74.75;41.42;;;;;;;6.79;100.00;101423.59;5093680;28;20086;-72
2021/11/15 06:12:08;;;;;;;75.10;42.95;;;;;;;6.72;100.00;101408.59;5093914;28;20099;-72
2021/11/15 06:14:34;;;;;;;78.18;41.70;;;;;;;6.70;100.00;101407.59;5093571;28;20043;-72
2021/11/15 06:16:59;;;;;;;68.57;38.72;;;;;;;6.71;100.00;101409.38;5090391;28;20028;-70
2021/11/15 06:19:25;;;;;;;70.40;39.75;;;;;;;6.64;100.00;101414.09;5084561;28;20031;-74
2021/11/15 06:21:51;;;;;;;73.15;40.28;;;;;;;6.74;100.00;101425.88;5088273;28;20089;-72
2021/11/15 06:24:17;;;;;;;70.32;40.55;;;;;;;6.90;100.00;101440.63;5029263;28;20039;-73
2021/11/15 06:26:43;;;;;;;73.18;41.67;;;;;;;6.82;100.00;101428.94;5093265;28;20028;-71
2021/11/15 06:29:08;;;;;;;64.05;37.78;;;;;;;6.75;100.00;101437.00;5093416;28;20032;-74
2021/11/15 06:31:34;;;;;;;66.70;39.22;;;;;;;6.72;100.00;101441.94;5093337;28;20486;-75
2021/11/15 06:33:59;;;;;;;65.10;37.55;;;;;;;6.71;100.00;101425.63;5084781;28;20067;-75
2021/11/15 06:36:25;;;;;;;73.38;39.70;;;;;;;6.75;100.00;101439.56;5089632;28;20028;-74
2021/11/15 06:38:53;;;;;;;74.30;41.25;;;;;;;6.76;100.00;101452.50;5091388;28;20042;-73
2021/11/15 06:41:20;;;;;;;70.95;40.28;;;;;;;6.60;100.00;101413.75;5092197;28;20442;-75
2021/11/15 06:43:45;;;;;;;73.97;41.05;;;;;;;6.63;100.00;101412.28;5087447;28;20482;-74
2021/11/15 06:46:11;;;;;;;71.25;39.58;;;;;;;6.29;100.00;101351.00;5087098;28;20035;-74
2021/11/15 06:48:42;;;;;;;70.85;41.05;;;;;;;6.71;100.00;101430.78;5092003;28;20031;-74
2021/11/15 06:51:09;;;;;;;67.35;37.95;;;;;;;6.86;100.00;101453.16;5068307;28;20098;-76
2021/11/15 06:53:36;;;;;;;66.43;38.15;;;;;;;6.92;100.00;101449.31;5090399;28;20481;-75
2021/11/15 06:56:22;;;;;;;66.18;38.90;;;;;;;6.87;100.00;101435.28;5091956;28;20035;-75
2021/11/15 06:58:47;;;;;;;63.72;36.28;;;;;;;6.64;100.00;101388.44;5049689;28;20041;-74
2021/11/15 07:01:13;;;;;;;64.65;36.55;;;;;;;7.00;100.00;101461.78;5040042;28;20045;-74
2021/11/15 07:03:38;;;;;;;62.50;36.70;;;;;;;6.92;100.00;101445.88;5013730;28;20527;-74
2021/11/15 07:06:04;;;;;;;58.08;36.17;;;;;;;6.94;100.00;101445.19;5030304;28;20037;-74
2021/11/15 07:08:29;;;;;;;61.30;38.15;;;;;;;7.07;100.00;101458.84;5030165;28;20120;-75
2021/11/15 07:10:55;;;;;;;57.08;34.55;;;;;;;6.59;100.00;101382.09;5030073;28;20399;-74
2021/11/15 07:13:21;;;;;;;60.92;36.33;;;;;;;6.96;100.00;101460.69;5030185;28;20570;-74
2021/11/15 07:15:48;;;;;;;61.10;41.88;;;;;;;6.35;100.00;101360.78;5029498;28;20060;-74
2021/11/15 07:30:25;;;;;;;73.38;39.80;;;;;;;6.55;100.00;101451.91;5061905;28;20417;-72
2021/11/15 07:32:51;;;;;;;67.35;42.63;;;;;;;6.79;100.00;101460.44;5049123;28;20494;-70
2021/11/15 07:35:17;;;;;;;71.35;42.13;;;;;;;6.86;100.00;101454.03;5041769;28;20032;-71
2021/11/15 07:37:44;;;;;;;71.65;45.30;;;;;;;6.92;100.00;101457.00;5048716;28;20037;-72
2021/11/15 07:40:11;;;;;;;65.63;43.80;;;;;;;6.77;100.00;101418.34;5047780;28;20033;-72
2021/11/15 07:42:36;;;;;;;65.05;42.90;;;;;;;6.92;100.00;101436.47;5048934;28;20108;-72
2021/11/15 07:45:04;;;;;;;64.57;42.10;;;;;;;7.13;100.00;101446.41;5049184;28;20115;-71
2021/11/15 07:47:31;;;;;;;67.65;42.85;;;;;;;7.26;100.00;101454.16;5047292;28;20033;-71
2021/11/15 07:49:57;;;;;;;64.35;42.75;;;;;;;6.90;100.00;101372.97;5044996;28;20025;-71
2021/11/15 07:52:23;;;;;;;66.28;45.17;;;;;;;7.42;100.00;101465.41;5044838;28;20044;-72
2021/11/15 07:54:50;;;;;;;67.13;42.92;;;;;;;7.40;100.00;101451.56;5046698;28;20021;-73
2021/11/15 07:57:17;;;;;;;70.47;42.80;;;;;;;7.52;100.00;101466.91;5046909;28;20045;-73
2021/11/15 07:59:44;;;;;;;60.80;41.88;;;;;;;7.49;100.00;101475.31;5048469;28;20025;-71
2021/11/15 08:02:11;;;;;;;65.50;43.70;;;;;;;7.35;100.00;101430.75;5048315;28;20453;-71
2021/11/15 08:04:37;;;;;;;67.22;43.28;;;;;;;7.64;100.00;101465.16;5048406;28;20033;-73
2021/11/15 08:07:03;;;;;;;68.63;44.33;;;;;;;7.59;100.00;101462.28;5048473;28;20040;-72
2021/11/15 08:09:29;;;;;;;66.13;43.55;;;;;;;7.68;100.00;101473.94;5046967;28;20494;-72
2021/11/15 08:12:05;;;;;;;65.68;40.40;;;;;;;7.99;100.00;101473.31;5046876;28;20032;-73
2021/11/15 08:14:32;;;;;;;62.33;38.72;;;;;;;8.23;100.00;101456.00;5047629;28;20475;-73
2021/11/15 08:16:58;;;;;;;55.25;38.80;;;;;;;7.73;100.00;101356.91;5046911;28;20025;-73
2021/11/15 08:19:23;;;;;;;62.33;38.47;;;;;;;8.37;100.00;101457.75;5046372;28;20033;-73
2021/11/15 08:21:49;;;;;;;59.95;40.05;;;;;;;8.31;100.00;101461.59;5042963;28;20029;-73
2021/11/15 08:24:17;;;;;;;62.53;38.38;;;;;;;8.49;100.00;101467.91;5044277;28;20589;-73
2021/11/15 08:27:01;;;;;;;57.90;37.78;;;;;;;8.71;100.00;101469.22;5044515;28;20075;-74
2021/11/15 08:29:30;;;;;;;55.90;36.60;;;;;;;8.81;100.00;101457.78;5046510;28;20085;-74
2021/11/15 08:31:59;;;;;;;55.67;35.75;;;;;;;8.81;100.00;101443.25;5043916;28;20040;-73
2021/11/15 08:34:26;;;;;;;55.40;34.65;;;;;;;8.96;100.00;101445.84;5041467;28;20487;-73
2021/11/15 08:36:51;;;;;;;56.72;36.60;;;;;;;9.09;100.00;101454.31;5047729;28;20029;-74
2021/11/15 08:39:20;;;;;;;55.72;36.20;;;;;;;9.09;100.00;101434.56;5043801;28;20372;-73
2021/11/15 08:41:56;;;;;;;56.13;37.03;;;;;;;9.39;100.00;101463.81;5029672;28;20077;-74
2021/11/15 08:44:23;;;;;;;51.63;34.67;;;;;;;9.50;100.00;101461.84;5033001;28;20041;-74
2021/11/15 08:46:52;;;;;;;47.55;31.35;;;;;;;9.56;100.00;101458.75;5034012;28;20082;-74
2021/11/15 08:49:21;;;;;;;49.70;32.90;;;;;;;9.81;100.00;101460.13;5033920;28;20116;-73
2021/11/15 08:51:47;;;;;;;52.47;32.73;;;;;;;9.84;100.00;101430.25;5034325;28;20403;-72
2021/11/15 08:54:15;;;;;;;44.95;32.40;;;;;;;10.05;100.00;101460.59;5016257;28;20284;-73
2021/11/15 08:56:50;;;;;;;51.40;32.57;;;;;;;10.15;100.00;101459.41;5033940;28;20025;-74
2021/11/15 08:59:17;;;;;;;49.60;31.15;;;;;;;10.00;100.00;101441.38;5033169;28;20045;-74
2021/11/15 09:01:42;;;;;;;48.17;32.50;;;;;;;10.13;100.00;101466.16;5033887;28;20025;-74
2021/11/15 09:04:08;;;;;;;48.97;32.92;;;;;;;10.00;100.00;101451.72;5033272;28;20060;-74
2021/11/15 09:06:35;;;;;;;45.33;30.40;;;;;;;10.08;100.00;101458.19;5026238;28;20033;-74
2021/11/15 09:09:04;;;;;;;44.45;30.02;;;;;;;10.02;100.00;101456.16;5013766;28;20034;-73
2021/11/15 09:11:29;;;;;;;48.08;32.17;;;;;;;10.03;100.00;101444.13;5013670;28;20061;-73
2021/11/15 09:13:56;;;;;;;53.83;31.88;;;;;;;10.07;100.00;101451.25;5013946;28;20432;-73
2021/11/15 09:16:21;;;;;;;44.92;30.27;;;;;;;10.06;100.00;101441.72;5014272;28;20026;-73
2021/11/15 09:18:47;;;;;;;39.35;28.65;;;;;;;9.99;100.00;101422.47;5019092;28;20495;-74
2021/11/15 09:21:15;;;;;;;42.83;29.25;;;;;;;10.23;100.00;101440.06;5020230;28;20026;-72
2021/11/15 09:23:43;;;;;;;48.35;29.40;;;;;;;10.30;100.00;101437.00;5013854;28;20022;-73
2021/11/15 09:26:11;;;;;;;47.47;30.65;;;;;;;10.30;100.00;101438.69;5013774;28;20038;-73
2021/11/15 09:28:37;;;;;;;36.45;25.77;;;;;;;10.33;100.00;101446.59;5019919;28;20139;-73
2021/11/15 09:31:04;;;;;;;39.17;28.85;;;;;;;10.42;100.00;101441.97;5032458;28;20038;-73
2021/11/15 09:33:30;;;;;;;39.22;28.23;;;;;;;10.28;100.00;101417.97;5032438;28;20029;-73
2021/11/15 09:35:56;;;;;;;36.67;26.95;;;;;;;10.34;100.00;101425.13;5029756;28;20045;-73
2021/11/15 09:38:24;;;;;;;39.90;27.38;;;;;;;10.10;100.00;101361.09;5024206;28;20104;-74
2021/11/15 09:40:56;;;;;;;37.28;26.45;;;;;;;10.60;100.00;101426.53;5013256;28;20026;-74
2021/11/15 09:43:33;;;;;;;31.17;20.92;;;;;;;10.62;100.00;101435.28;5019980;28;20057;-73
2021/11/15 09:46:10;;;;;;;36.15;23.45;;;;;;;10.75;100.00;101416.13;5015973;28;20033;-73
2021/11/15 09:48:39;;;;;;;37.33;22.73;;;;;;;10.79;100.00;101425.81;5013467;28;20125;-74
2021/11/15 09:51:06;;;;;;;33.90;23.73;;;;;;;10.88;100.00;101427.09;5013109;28;20464;-73
2021/11/15 09:53:31;;;;;;;29.08;20.20;;;;;;;10.93;100.00;101421.34;5012469;28;20127;-73
2021/11/15 09:55:58;;;;;;;38.95;23.15;;;;;;;10.91;100.00;101412.63;5012846;28;20027;-74
2021/11/15 09:58:24;;;;;;;26.20;17.67;;;;;;;11.03;99.99;101417.53;5013186;28;20026;-72
2021/11/15 10:00:50;;;;;;;32.67;20.77;;;;;;;11.04;100.00;101408.06;5011488;28;20037;-74
2021/11/15 10:03:17;;;;;;;31.55;19.95;;;;;;;11.15;100.00;101417.25;5013192;28;20022;-73
2021/11/15 10:05:44;;;;;;;28.98;17.15;;;;;;;11.17;99.71;101426.84;5014010;28;20029;-73
2021/11/15 10:08:12;;;;;;;25.17;17.55;;;;;;;11.13;100.00;101399.09;5021103;28;20026;-73
2021/11/15 10:10:40;;;;;;;24.85;15.02;;;;;;;11.29;99.16;101420.50;5012694;28;20126;-73
2021/11/15 10:13:25;;;;;;;23.40;15.33;;;;;;;11.41;99.57;101415.94;5014478;28;20018;-73
2021/11/15 10:15:57;;;;;;;24.52;14.02;;;;;;;11.32;98.46;101393.13;5029834;28;20045;-73
2021/11/15 10:18:41;;;;;;;25.20;15.82;;;;;;;11.53;98.71;101420.84;5032278;28;20030;-72
2021/11/15 10:21:13;;;;;;;28.80;14.10;;;;;;;11.47;97.42;101390.38;5032388;28;20029;-73
2021/11/15 10:23:49;;;;;;;20.20;13.48;;;;;;;11.34;96.70;101364.78;5032139;28;20098;-73
2021/11/15 10:26:46;;;;;;;24.20;13.38;;;;;;;11.71;94.80;101417.38;5032268;28;20056;-73
2021/11/15 10:29:14;;;;;;;25.23;11.55;;;;;;;11.76;92.44;101415.88;5032108;28;20045;-74
2021/11/15 10:31:52;;;;;;;19.33;12.05;;;;;;;11.79;93.25;101411.75;5032134;28;20130;-72
2021/11/15 10:34:34;;;;;;;10.93;5.67;;;;;;;11.39;86.37;101342.63;5028864;28;20038;-72
2021/11/15 10:37:32;;;;;;;15.57;5.72;;;;;;;11.98;84.68;101428.16;5031560;28;20491;-73
2021/11/15 10:40:07;;;;;;;20.58;6.47;;;;;;;12.11;84.48;101427.91;5030984;28;20037;-73
2021/11/15 10:42:40;;;;;;;19.60;7.30;;;;;;;12.24;84.25;101425.91;5031804;28;20025;-74
2021/11/15 10:45:06;;;;;;;18.23;7.75;;;;;;;12.30;84.88;101418.41;5026726;28;20025;-75
2021/11/15 10:47:33;;;;;;;17.70;8.02;;;;;;;12.30;85.42;101419.28;5020944;28;20476;-73
2021/11/15 10:50:00;;;;;;;16.98;8.32;;;;;;;12.26;84.69;101411.28;5012203;28;20037;-74
2021/11/15 10:52:26;;;;;;;24.15;9.70;;;;;;;12.32;85.64;101415.88;5027764;28;20068;-74
2021/11/15 10:55:02;;;;;;;32.78;11.73;;;;;;;12.33;86.38;101396.94;5011948;28;20054;-75
2021/11/15 10:57:40;;;;;;;18.45;10.85;;;;;;;12.39;86.69;101408.44;5011874;28;20044;-75
2021/11/15 11:00:09;;;;;;;20.45;9.90;;;;;;;12.37;86.94;101404.03;5012101;28;20065;-74
2021/11/15 11:02:39;;;;;;;12.68;8.35;;;;;;;11.88;84.13;101323.31;5011915;28;20030;-75
2021/11/15 11:05:15;;;;;;;14.27;8.98;;;;;;;12.20;84.13;101378.25;5012027;28;20032;-75
2021/11/15 11:07:44;;;;;;;13.05;8.45;;;;;;;12.25;85.31;101386.22;5011309;28;20041;-72
2021/11/15 11:10:11;;;;;;;12.15;8.63;;;;;;;12.44;85.20;101416.44;5011952;28;20462;-74
2021/11/15 11:12:43;;;;;;;25.10;8.93;;;;;;;12.24;84.89;101387.06;5011780;28;20062;-72
2021/11/15 11:15:32;;;;;;;12.55;7.25;;;;;;;12.45;83.27;101419.06;5025724;28;20498;-71
2021/11/15 11:17:59;;;;;;;18.45;8.60;;;;;;;12.01;83.64;101334.25;5031454;28;20116;-72
2021/11/15 11:20:33;;;;;;;24.52;9.32;;;;;;;12.03;83.79;101330.91;5031639;28;20025;-74
2021/11/15 11:25:54;;;;;;;16.75;7.38;;;;;;;11.97;83.55;101341.88;5031021;28;20411;-74